createdAt,value
2019-05-29T00:00:20.529Z,1.30
2019-05-29T00:02:49.385Z,1.10
2019-05-29T00:05:18.445Z,2.03
2019-05-29T00:07:47.350Z,0.87
2019-05-29T00:10:18.589Z,1.13
2019-05-29T00:12:47.574Z,1.10
2019-05-29T00:15:17.135Z,2.27
2019-05-29T00:17:45.969Z,9.40
2019-05-29T00:20:14.904Z,8.10
2019-05-29T00:22:43.741Z,9.40
2019-05-29T00:25:12.758Z,9.10
2019-05-29T00:27:41.513Z,3.30
2019-05-29T00:30:10.861Z,3.53
2019-05-29T00:32:39.853Z,1.47
2019-05-29T00:35:10.088Z,4.93
2019-05-29T00:37:39.098Z,2.47
2019-05-29T00:40:08.889Z,1.20
2019-05-29T00:42:38.040Z,1.20
2019-05-29T00:45:07.314Z,1.23
2019-05-29T00:47:36.249Z,1.03
2019-05-29T00:50:06.001Z,2.93
2019-05-29T00:52:34.900Z,1.13
2019-05-29T00:55:03.878Z,1.77
2019-05-29T00:57:32.703Z,1.17
2019-05-29T01:00:01.455Z,1.10
2019-05-29T01:02:30.246Z,1.13
2019-05-29T01:04:59.026Z,1.73
2019-05-29T01:07:27.840Z,1.90
2019-05-29T01:09:56.609Z,1.83
2019-05-29T01:12:25.606Z,2.10
2019-05-29T01:14:54.350Z,1.00
2019-05-29T01:17:23.100Z,2.77
2019-05-29T01:19:51.911Z,4.10
2019-05-29T01:22:20.792Z,3.30
2019-05-29T01:24:49.555Z,2.30
2019-05-29T01:27:18.819Z,1.33
2019-05-29T01:29:47.730Z,2.17
2019-05-29T01:32:17.500Z,1.50
2019-05-29T01:34:46.476Z,1.90
2019-05-29T01:37:16.085Z,1.37
2019-05-29T01:39:45.140Z,1.93
2019-05-29T01:42:15.149Z,3.80
2019-05-29T01:44:44.064Z,1.30
2019-05-29T01:47:12.878Z,3.63
2019-05-29T01:49:41.721Z,1.00
2019-05-29T01:52:10.519Z,1.80
2019-05-29T01:54:39.243Z,1.67
2019-05-29T01:57:08.011Z,3.13
2019-05-29T01:59:36.782Z,1.17
2019-05-29T02:02:05.733Z,1.30
2019-05-29T02:04:34.599Z,1.23
2019-05-29T02:07:03.530Z,2.03
2019-05-29T02:09:32.286Z,2.70
2019-05-29T02:12:01.324Z,2.07
2019-05-29T02:14:30.237Z,1.00
2019-05-29T02:16:59.076Z,1.30
2019-05-29T02:19:28.223Z,1.00
2019-05-29T02:21:57.069Z,1.37
2019-05-29T02:24:25.859Z,1.33
2019-05-29T02:26:54.711Z,1.33
2019-05-29T02:29:24.787Z,1.97
2019-05-29T02:31:53.707Z,1.37
2019-05-29T02:34:23.202Z,2.40
2019-05-29T02:36:53.040Z,1.07
2019-05-29T02:39:23.025Z,2.60
2019-05-29T02:41:52.457Z,4.00
2019-05-29T02:44:21.310Z,4.47
2019-05-29T02:46:50.100Z,2.07
2019-05-29T02:49:19.950Z,1.10
2019-05-29T02:51:49.444Z,1.60
2019-05-29T02:54:18.257Z,1.23
2019-05-29T02:56:47.071Z,1.50
2019-05-29T02:59:15.849Z,1.17
2019-05-29T03:01:44.822Z,1.07
2019-05-29T03:04:13.765Z,1.53
2019-05-29T03:06:42.682Z,1.20
2019-05-29T03:09:11.553Z,1.10
2019-05-29T03:11:40.431Z,1.50
2019-05-29T03:14:09.240Z,1.57
2019-05-29T03:16:38.109Z,2.10
2019-05-29T03:19:06.891Z,1.40
2019-05-29T03:21:35.634Z,1.40
2019-05-29T03:24:04.553Z,1.60
2019-05-29T03:26:34.905Z,1.83
2019-05-29T03:29:04.083Z,1.17
2019-05-29T03:31:39.706Z,1.90
2019-05-29T03:34:03.346Z,1.17
2019-05-29T03:36:41.549Z,1.40
2019-05-29T03:39:02.644Z,1.20
2019-05-29T03:41:32.729Z,1.30
2019-05-29T03:44:01.901Z,4.40
2019-05-29T03:46:40.013Z,1.10
2019-05-29T03:49:01.264Z,1.77
2019-05-29T03:51:32.523Z,1.20
2019-05-29T03:54:00.499Z,1.60
2019-05-29T03:56:30.609Z,1.27
2019-05-29T03:58:59.586Z,1.20
2019-05-29T04:01:29.132Z,1.80
2019-05-29T04:03:58.530Z,1.87
2019-05-29T04:06:28.918Z,1.70
2019-05-29T04:08:57.929Z,1.40
2019-05-29T04:11:27.408Z,2.10
2019-05-29T04:13:56.426Z,2.60
2019-05-29T04:16:27.632Z,1.73
2019-05-29T04:18:57.840Z,1.53
2019-05-29T04:21:27.910Z,2.47
2019-05-29T04:23:59.841Z,1.40
2019-05-29T04:26:32.277Z,2.13
2019-05-29T04:29:02.207Z,4.80
2019-05-29T04:31:32.512Z,2.53
2019-05-29T04:34:01.730Z,1.53
2019-05-29T04:36:31.169Z,1.33
2019-05-29T04:39:01.198Z,1.63
2019-05-29T04:41:30.844Z,2.00
2019-05-29T04:43:59.951Z,4.30
2019-05-29T04:46:30.004Z,1.83
2019-05-29T04:48:59.267Z,1.77
2019-05-29T04:51:29.100Z,1.57
2019-05-29T04:53:58.151Z,1.40
2019-05-29T04:56:26.896Z,3.50
2019-05-29T04:58:55.624Z,3.60
2019-05-29T05:01:24.406Z,2.20
2019-05-29T05:03:53.194Z,2.17
2019-05-29T05:06:21.933Z,1.93
2019-05-29T05:08:50.693Z,3.37
2019-05-29T05:11:19.552Z,2.00
2019-05-29T05:13:48.645Z,1.90
2019-05-29T05:16:17.452Z,4.67
2019-05-29T05:18:46.251Z,2.37
2019-05-29T05:21:14.975Z,2.47
2019-05-29T05:23:43.763Z,6.03
2019-05-29T05:26:12.524Z,3.30
2019-05-29T05:28:44.901Z,3.87
2019-05-29T05:31:11.809Z,3.17
2019-05-29T05:33:40.999Z,2.83
2019-05-29T05:36:10.217Z,6.20
2019-05-29T05:38:39.030Z,6.13
2019-05-29T05:41:07.845Z,5.13
2019-05-29T05:43:36.962Z,5.13
2019-05-29T05:46:05.930Z,3.20
2019-05-29T05:48:35.108Z,2.97
2019-05-29T05:51:04.033Z,3.60
2019-05-29T05:53:33.385Z,3.93
2019-05-29T05:56:02.368Z,5.50
2019-05-29T05:58:31.643Z,4.30
2019-05-29T06:01:00.534Z,2.10
2019-05-29T06:03:29.486Z,1.77
2019-05-29T06:05:58.343Z,5.70
2019-05-29T06:08:27.302Z,2.50
2019-05-29T06:10:56.054Z,4.27
2019-05-29T06:13:24.882Z,3.03
2019-05-29T06:15:56.268Z,4.43
2019-05-29T06:18:25.178Z,2.87
2019-05-29T06:20:53.964Z,2.50
2019-05-29T06:23:22.926Z,2.10
2019-05-29T06:25:51.887Z,5.20
2019-05-29T06:28:20.810Z,2.77
2019-05-29T06:30:49.633Z,2.43
2019-05-29T06:33:18.401Z,4.40
2019-05-29T06:35:47.249Z,3.77
2019-05-29T06:38:16.166Z,4.47
2019-05-29T06:40:45.394Z,2.63
2019-05-29T06:43:22.002Z,5.97
2019-05-29T06:45:51.123Z,3.20
2019-05-29T06:48:40.587Z,2.90
2019-05-29T06:50:57.519Z,1.97
2019-05-29T06:53:26.559Z,2.60
2019-05-29T06:55:57.227Z,3.80
2019-05-29T06:58:26.417Z,6.87
2019-05-29T07:00:55.417Z,3.13
2019-05-29T07:03:24.308Z,4.47
2019-05-29T07:05:53.253Z,2.00
2019-05-29T07:08:37.505Z,3.53
2019-05-29T07:10:52.686Z,2.63
2019-05-29T07:13:21.506Z,2.20
2019-05-29T07:15:50.304Z,2.70
2019-05-29T07:18:19.200Z,3.70
2019-05-29T07:20:48.075Z,2.67
2019-05-29T07:23:16.897Z,4.60
2019-05-29T07:25:46.142Z,2.97
2019-05-29T07:28:16.239Z,2.00
2019-05-29T07:30:53.716Z,2.73
2019-05-29T07:33:15.714Z,2.20
2019-05-29T07:35:45.688Z,2.20
2019-05-29T07:38:14.723Z,5.80
2019-05-29T07:40:47.084Z,3.70
2019-05-29T07:43:15.061Z,3.43
2019-05-29T07:45:44.103Z,4.57
2019-05-29T07:48:13.088Z,4.40
2019-05-29T07:50:42.202Z,1.70
2019-05-29T07:53:11.179Z,1.17
2019-05-29T07:55:40.465Z,2.50
2019-05-29T07:58:09.405Z,2.83
2019-05-29T08:01:01.070Z,1.73
2019-05-29T08:03:09.393Z,5.47
2019-05-29T08:05:39.176Z,5.70
2019-05-29T08:08:08.188Z,2.13
2019-05-29T08:10:36.952Z,2.53
2019-05-29T08:13:05.831Z,1.77
2019-05-29T08:15:49.175Z,5.97
2019-05-29T08:18:05.423Z,3.87
2019-05-29T08:20:34.304Z,2.20
2019-05-29T08:23:03.137Z,5.45
2019-05-29T08:25:31.907Z,4.70
2019-05-29T08:28:00.842Z,1.87
2019-05-29T08:30:29.898Z,1.77
2019-05-29T08:32:58.822Z,1.30
2019-05-29T08:35:27.621Z,3.53
2019-05-29T08:37:56.516Z,5.67
2019-05-29T08:40:25.351Z,1.50
2019-05-29T08:42:54.164Z,3.20
2019-05-29T08:45:23.054Z,1.20
2019-05-29T08:47:52.028Z,1.60
2019-05-29T08:50:21.202Z,3.27
2019-05-29T08:52:50.165Z,2.97
2019-05-29T08:55:19.087Z,2.07
2019-05-29T08:57:48.442Z,2.30
2019-05-29T09:00:18.391Z,1.83
2019-05-29T09:02:48.906Z,2.47
2019-05-29T09:05:17.940Z,4.67
2019-05-29T09:07:48.350Z,2.20
2019-05-29T09:10:18.140Z,1.60
2019-05-29T09:12:56.705Z,2.03
2019-05-29T09:15:21.169Z,3.13
2019-05-29T09:17:48.472Z,3.40
2019-05-29T09:20:35.106Z,3.53
2019-05-29T09:22:47.979Z,1.50
2019-05-29T09:25:17.066Z,1.93
2019-05-29T09:27:45.981Z,4.77
2019-05-29T09:30:16.653Z,2.87
2019-05-29T09:32:50.934Z,1.97
2019-05-29T09:35:18.412Z,5.60
2019-05-29T09:37:46.990Z,2.57
2019-05-29T09:40:18.781Z,2.73
2019-05-29T09:42:47.846Z,3.90
2019-05-29T09:45:17.961Z,3.97
2019-05-29T09:47:47.227Z,2.50
2019-05-29T09:50:18.544Z,4.40
2019-05-29T09:52:47.615Z,2.83
2019-05-29T09:55:16.933Z,3.52
2019-05-29T09:57:45.711Z,2.33
2019-05-29T10:00:14.772Z,3.80
2019-05-29T10:02:43.588Z,1.87
2019-05-29T10:05:12.970Z,1.40
2019-05-29T10:07:41.734Z,1.98
2019-05-29T10:10:11.671Z,1.70
2019-05-29T10:12:40.551Z,2.15
2019-05-29T10:15:11.453Z,1.40
2019-05-29T10:17:40.310Z,4.40
2019-05-29T10:20:11.430Z,2.33
2019-05-29T10:22:40.278Z,2.00
2019-05-29T10:25:11.073Z,1.30
2019-05-29T10:27:39.808Z,3.33
2019-05-29T10:30:10.102Z,1.50
2019-05-29T10:32:38.968Z,1.57
2019-05-29T10:35:08.589Z,1.22
2019-05-29T10:37:37.543Z,2.33
2019-05-29T10:40:06.964Z,1.90
2019-05-29T10:42:35.855Z,1.50
2019-05-29T10:45:06.391Z,1.12
2019-05-29T10:47:35.163Z,1.25
2019-05-29T10:50:04.981Z,1.40
2019-05-29T10:52:33.847Z,1.32
2019-05-29T10:55:02.589Z,3.00
2019-05-29T10:57:31.449Z,2.33
2019-05-29T11:00:00.402Z,2.70
2019-05-29T11:02:29.223Z,2.10
2019-05-29T11:04:59.543Z,4.30
2019-05-29T11:07:28.630Z,3.77
2019-05-29T11:09:57.412Z,1.55
2019-05-29T11:12:26.681Z,2.02
2019-05-29T11:14:56.811Z,1.50
2019-05-29T11:17:25.764Z,3.22
2019-05-29T11:19:55.634Z,2.10
2019-05-29T11:22:26.493Z,2.27
2019-05-29T11:24:56.593Z,1.77
2019-05-29T11:27:26.291Z,2.33
2019-05-29T11:29:55.637Z,3.17
2019-05-29T11:32:25.897Z,3.05
2019-05-29T11:34:55.508Z,3.60
2019-05-29T11:37:24.410Z,5.65
2019-05-29T11:39:53.258Z,2.42
2019-05-29T11:42:27.338Z,3.75
2019-05-29T11:44:53.445Z,2.20
2019-05-29T11:47:22.884Z,3.77
2019-05-29T11:49:53.035Z,2.85
2019-05-29T11:52:25.056Z,3.58
2019-05-29T11:54:56.572Z,3.90
2019-05-29T11:57:23.464Z,2.67
2019-05-29T11:59:52.231Z,3.00
2019-05-29T12:02:21.135Z,3.75
2019-05-29T12:04:51.031Z,3.08
2019-05-29T12:07:20.022Z,2.85
2019-05-29T12:09:48.811Z,2.90
2019-05-29T12:12:17.569Z,3.05
2019-05-29T12:15:00.301Z,2.87
2019-05-29T12:17:16.857Z,3.10
2019-05-29T12:19:45.726Z,3.02
2019-05-29T12:22:14.579Z,3.35
2019-05-29T12:24:43.421Z,3.42
2019-05-29T12:27:12.255Z,3.08
2019-05-29T12:29:41.031Z,3.05
2019-05-29T12:32:11.629Z,4.62
2019-05-29T12:34:52.749Z,2.72
2019-05-29T12:37:10.857Z,3.40
2019-05-29T12:39:39.688Z,3.42
2019-05-29T12:42:08.463Z,4.50
2019-05-29T12:44:37.333Z,2.98
2019-05-29T12:47:06.177Z,3.02
2019-05-29T12:49:35.069Z,3.52
2019-05-29T12:52:07.746Z,3.22
2019-05-29T12:54:34.752Z,3.22
2019-05-29T12:57:04.252Z,2.77
2019-05-29T12:59:33.209Z,2.40
2019-05-29T13:02:02.706Z,3.65
2019-05-29T13:04:31.722Z,6.40
2019-05-29T13:07:00.541Z,2.75
2019-05-29T13:09:29.342Z,3.05
2019-05-29T13:11:58.532Z,5.65
2019-05-29T13:14:27.479Z,3.10
2019-05-29T13:16:56.657Z,3.92
2019-05-29T13:19:25.597Z,3.35
2019-05-29T13:21:55.023Z,5.15
2019-05-29T13:24:24.046Z,4.30
2019-05-29T13:26:52.807Z,3.47
2019-05-29T13:29:21.652Z,3.17
2019-05-29T13:31:50.406Z,3.90
2019-05-29T13:34:19.304Z,3.10
2019-05-29T13:36:48.167Z,4.05
2019-05-29T13:39:17.029Z,4.22
2019-05-29T13:41:45.874Z,4.03
2019-05-29T13:44:14.644Z,5.28
2019-05-29T13:46:43.428Z,7.17
2019-05-29T13:49:12.289Z,4.15
2019-05-29T13:51:41.152Z,3.50
2019-05-29T13:54:14.252Z,4.08
2019-05-29T13:56:40.450Z,3.60
2019-05-29T13:59:09.224Z,7.67
2019-05-29T14:01:38.069Z,5.33
2019-05-29T14:04:06.959Z,3.47
2019-05-29T14:06:35.783Z,3.37
2019-05-29T14:09:07.546Z,4.80
2019-05-29T14:11:36.962Z,6.92
2019-05-29T14:14:07.986Z,3.98
2019-05-29T14:16:36.427Z,4.15
2019-05-29T14:19:06.799Z,4.03
2019-05-29T14:21:35.855Z,8.65
2019-05-29T14:24:23.490Z,2.67
2019-05-29T14:26:35.267Z,2.87
2019-05-29T14:29:05.855Z,3.83
2019-05-29T14:31:34.696Z,2.58
2019-05-29T14:34:05.050Z,3.05
2019-05-29T14:36:34.168Z,5.03
2019-05-29T14:39:03.724Z,3.27
2019-05-29T14:41:32.496Z,4.33
2019-05-29T14:44:01.723Z,3.15
2019-05-29T14:46:33.517Z,2.77
2019-05-29T14:49:02.472Z,2.80
2019-05-29T14:51:34.412Z,2.67
2019-05-29T14:54:04.598Z,2.83
2019-05-29T14:56:33.766Z,2.12
2019-05-29T14:59:03.296Z,2.42
2019-05-29T15:01:32.621Z,2.22
2019-05-29T15:04:01.522Z,2.72
2019-05-29T15:06:30.311Z,2.80
2019-05-29T15:08:59.098Z,2.55
2019-05-29T15:11:28.051Z,3.02
2019-05-29T15:13:56.911Z,2.67
2019-05-29T15:16:25.744Z,2.42
2019-05-29T15:18:54.581Z,2.72
2019-05-29T15:21:23.483Z,2.42
2019-05-29T15:23:52.274Z,2.30
2019-05-29T15:26:21.189Z,4.50
2019-05-29T15:28:49.965Z,2.70
2019-05-29T15:31:18.731Z,3.10
2019-05-29T15:33:47.530Z,2.52
2019-05-29T15:36:16.936Z,3.90
2019-05-29T15:38:46.169Z,3.02
2019-05-29T15:41:18.091Z,2.55
2019-05-29T15:43:49.267Z,3.05
2019-05-29T15:46:17.737Z,3.15
2019-05-29T15:48:46.748Z,3.75
2019-05-29T15:51:21.626Z,2.60
2019-05-29T15:53:48.618Z,2.80
2019-05-29T15:56:26.921Z,3.77
2019-05-29T15:58:48.050Z,3.47
2019-05-29T16:01:17.980Z,3.77
2019-05-29T16:03:47.041Z,2.80
2019-05-29T16:06:16.058Z,3.83
2019-05-29T16:08:44.958Z,3.12
2019-05-29T16:11:14.646Z,3.17
2019-05-29T16:13:55.240Z,2.62
2019-05-29T16:16:24.253Z,3.40
2019-05-29T16:18:56.079Z,8.25
2019-05-29T16:21:24.902Z,3.58
2019-05-29T16:23:53.643Z,4.10
2019-05-29T16:26:22.466Z,3.30
2019-05-29T16:28:51.262Z,3.30
2019-05-29T16:31:20.077Z,2.83
2019-05-29T16:33:48.882Z,3.08
2019-05-29T16:36:18.655Z,3.58
2019-05-29T16:38:47.620Z,3.92
2019-05-29T16:41:17.780Z,3.58
2019-05-29T16:43:46.790Z,3.55
2019-05-29T16:46:18.880Z,5.53
2019-05-29T16:48:46.379Z,3.85
2019-05-29T16:51:15.527Z,4.50
2019-05-29T16:53:45.524Z,3.67
2019-05-29T16:56:14.794Z,4.37
2019-05-29T16:58:43.634Z,4.83
2019-05-29T17:01:13.321Z,4.10
2019-05-29T17:03:42.338Z,3.90
2019-05-29T17:06:11.249Z,4.33
2019-05-29T17:08:40.045Z,3.55
2019-05-29T17:11:08.858Z,5.78
2019-05-29T17:13:37.626Z,4.70
2019-05-29T17:16:06.571Z,6.33
2019-05-29T17:18:35.350Z,5.40
2019-05-29T17:21:04.319Z,5.22
2019-05-29T17:23:33.063Z,5.00
2019-05-29T17:26:10.494Z,5.50
2019-05-29T17:28:32.433Z,5.05
2019-05-29T17:31:02.384Z,4.78
2019-05-29T17:33:31.579Z,5.03
2019-05-29T17:36:00.347Z,4.55
2019-05-29T17:38:29.213Z,5.25
2019-05-29T17:40:58.160Z,4.97
2019-05-29T17:43:28.746Z,4.50
2019-05-29T17:45:57.493Z,4.80
2019-05-29T17:48:26.260Z,4.50
2019-05-29T17:50:55.075Z,4.37
2019-05-29T17:53:24.279Z,4.35
2019-05-29T17:55:53.163Z,5.60
2019-05-29T17:58:22.831Z,6.03
2019-05-29T18:00:52.432Z,8.30
2019-05-29T18:03:22.137Z,4.58
2019-05-29T18:05:51.118Z,6.47
2019-05-29T18:08:20.721Z,5.35
2019-05-29T18:10:49.660Z,6.58
2019-05-29T18:13:19.053Z,5.87
2019-05-29T18:15:47.985Z,6.53
2019-05-29T18:18:17.484Z,5.05
2019-05-29T18:20:46.508Z,5.25
2019-05-29T18:23:15.445Z,7.50
2019-05-29T18:25:44.264Z,6.25
2019-05-29T18:28:13.063Z,6.15
2019-05-29T18:30:41.897Z,6.33
2019-05-29T18:33:10.742Z,5.75
2019-05-29T18:35:39.503Z,7.17
2019-05-29T18:38:08.321Z,5.30
2019-05-29T18:40:37.063Z,5.83
2019-05-29T18:43:06.092Z,5.47
2019-05-29T18:45:35.075Z,6.42
2019-05-29T18:48:04.100Z,6.95
2019-05-29T18:50:32.967Z,9.08
2019-05-29T18:53:01.819Z,9.93
2019-05-29T18:55:30.688Z,8.93
2019-05-29T18:58:01.903Z,9.00
2019-05-29T19:00:31.442Z,10.35
2019-05-29T19:03:00.524Z,7.30
2019-05-29T19:05:29.747Z,6.87
2019-05-29T19:07:58.636Z,5.97
2019-05-29T19:10:27.769Z,5.90
2019-05-29T19:12:56.667Z,6.12
2019-05-29T19:15:25.983Z,5.50
2019-05-29T19:17:54.768Z,5.92
2019-05-29T19:20:24.263Z,6.10
2019-05-29T19:22:53.244Z,7.58
2019-05-29T19:25:22.687Z,5.97
2019-05-29T19:27:52.049Z,6.20
2019-05-29T19:30:22.802Z,5.67
2019-05-29T19:32:51.812Z,6.20
2019-05-29T19:35:20.846Z,6.03
2019-05-29T19:37:49.630Z,6.28
2019-05-29T19:40:18.561Z,6.85
2019-05-29T19:42:47.318Z,5.85
2019-05-29T19:45:16.645Z,6.22
2019-05-29T19:47:47.982Z,6.47
2019-05-29T19:50:17.087Z,9.03
2019-05-29T19:52:45.931Z,7.05
2019-05-29T19:55:14.916Z,5.75
2019-05-29T19:57:55.420Z,5.92
2019-05-29T20:00:15.751Z,6.87
2019-05-29T20:02:44.648Z,8.88
2019-05-29T20:05:13.768Z,6.53
2019-05-29T20:07:42.521Z,7.67
2019-05-29T20:10:11.616Z,11.03
2019-05-29T20:12:40.550Z,9.78
2019-05-29T20:15:09.759Z,7.60
2019-05-29T20:17:38.728Z,9.73
2019-05-29T20:20:09.276Z,8.78
2019-05-29T20:22:39.109Z,11.53
2019-05-29T20:25:08.988Z,8.95
2019-05-29T20:27:38.579Z,8.85
2019-05-29T20:30:09.104Z,9.55
2019-05-29T20:32:38.919Z,9.15
2019-05-29T20:35:08.290Z,8.63
2019-05-29T20:37:38.226Z,10.85
2019-05-29T20:40:07.661Z,9.18
2019-05-29T20:42:36.491Z,9.70
2019-05-29T20:45:05.428Z,7.78
2019-05-29T20:47:35.561Z,9.25
2019-05-29T20:50:04.916Z,8.75
2019-05-29T20:52:35.085Z,8.93
2019-05-29T20:55:04.941Z,12.15
2019-05-29T20:57:34.030Z,9.13
2019-05-29T21:00:02.951Z,11.60
2019-05-29T21:02:31.999Z,10.53
2019-05-29T21:05:00.843Z,9.58
2019-05-29T21:07:29.706Z,9.13
2019-05-29T21:09:58.603Z,10.65
2019-05-29T21:12:27.359Z,9.33
2019-05-29T21:14:56.245Z,13.28
2019-05-29T21:17:25.076Z,10.18
2019-05-29T21:19:53.897Z,10.00
2019-05-29T21:22:22.893Z,10.82
2019-05-29T21:25:03.124Z,9.45
2019-05-29T21:27:22.205Z,17.10
2019-05-29T21:29:51.068Z,10.80
2019-05-29T21:32:19.861Z,10.38
2019-05-29T21:34:48.647Z,11.60
2019-05-29T21:37:17.536Z,10.48
2019-05-29T21:39:46.728Z,13.07
2019-05-29T21:42:15.723Z,10.50
2019-05-29T21:44:44.914Z,14.93
2019-05-29T21:47:13.870Z,11.95
2019-05-29T21:49:43.257Z,15.30
2019-05-29T21:52:12.261Z,12.30
2019-05-29T21:54:41.441Z,12.03
2019-05-29T21:57:10.296Z,16.48
2019-05-29T21:59:39.667Z,12.30
2019-05-29T22:02:08.897Z,13.28
2019-05-29T22:04:38.421Z,12.33
2019-05-29T22:07:07.649Z,13.80
2019-05-29T22:09:39.602Z,15.03
2019-05-29T22:12:08.456Z,12.73
2019-05-29T22:14:37.258Z,13.57
2019-05-29T22:17:06.170Z,12.53
2019-05-29T22:19:35.099Z,14.30
2019-05-29T22:22:04.007Z,11.70
2019-05-29T22:24:32.908Z,12.90
2019-05-29T22:27:01.782Z,11.00
2019-05-29T22:29:30.666Z,10.00
2019-05-29T22:31:59.595Z,10.07
2019-05-29T22:34:28.462Z,8.70
2019-05-29T22:36:57.522Z,12.90
2019-05-29T22:39:26.395Z,10.97
2019-05-29T22:41:55.618Z,9.45
2019-05-29T22:44:24.521Z,8.40
2019-05-29T22:46:55.666Z,7.83
2019-05-29T22:49:26.003Z,9.23
2019-05-29T22:51:55.683Z,8.03
2019-05-29T22:54:24.661Z,9.07
2019-05-29T22:56:53.976Z,10.53
2019-05-29T22:59:31.516Z,7.87
2019-05-29T23:01:56.380Z,9.07
2019-05-29T23:04:25.335Z,8.67
2019-05-29T23:06:54.264Z,5.93
2019-05-29T23:09:23.057Z,6.53
2019-05-29T23:11:52.157Z,9.03
2019-05-29T23:14:21.115Z,8.20
2019-05-29T23:16:49.949Z,10.93
2019-05-29T23:19:18.916Z,8.50
2019-05-29T23:21:47.676Z,8.57
2019-05-29T23:24:16.686Z,8.40
2019-05-29T23:26:45.486Z,14.07
2019-05-29T23:29:14.359Z,7.70
2019-05-29T23:31:43.164Z,9.15
2019-05-29T23:34:11.921Z,8.37
2019-05-29T23:36:40.700Z,8.63
2019-05-29T23:39:09.478Z,10.17
2019-05-29T23:41:38.292Z,10.77
2019-05-29T23:44:07.234Z,10.13
2019-05-29T23:46:36.124Z,10.33
2019-05-29T23:49:05.094Z,8.60
2019-05-29T23:51:33.960Z,9.63
2019-05-29T23:54:03.858Z,8.13
2019-05-29T23:56:32.788Z,8.37
2019-05-29T23:59:01.934Z,10.80
